sensor_id;sensor_type;location;lat;lon;timestamp;P1;durP1;ratioP1;P2;durP2;ratioP2
9934;SDS011;5006;41.828;23.478;2022-09-09T00:00:47;13.13;;;5.15;;
9934;SDS011;5006;41.828;23.478;2022-09-09T00:01:54;11.10;;;5.82;;
9934;SDS011;5006;41.828;23.478;2022-09-09T00:03:08;13.55;;;5.53;;
9934;SDS011;5006;41.828;23.478;2022-09-09T00:04:21;14.32;;;5.80;;
9934;SDS011;5006;41.828;23.478;2022-09-09T00:05:33;11.40;;;5.78;;
9934;SDS011;5006;41.828;23.478;2022-09-09T00:06:49;9.63;;;5.18;;
9934;SDS011;5006;41.828;23.478;2022-09-09T00:08:01;9.57;;;5.45;;
9934;SDS011;5006;41.828;23.478;2022-09-09T00:09:10;8.25;;;5.97;;
9934;SDS011;5006;41.828;23.478;2022-09-09T00:10:19;12.50;;;5.70;;
9934;SDS011;5006;41.828;23.478;2022-09-09T00:11:30;7.55;;;5.72;;
9934;SDS011;5006;41.828;23.478;2022-09-09T00:12:43;12.10;;;5.65;;
9934;SDS011;5006;41.828;23.478;2022-09-09T00:13:56;10.65;;;5.55;;
9934;SDS011;5006;41.828;23.478;2022-09-09T00:15:07;12.32;;;6.20;;
9934;SDS011;5006;41.828;23.478;2022-09-09T00:16:19;11.57;;;5.65;;
9934;SDS011;5006;41.828;23.478;2022-09-09T00:17:31;8.95;;;5.32;;
9934;SDS011;5006;41.828;23.478;2022-09-09T00:18:45;11.60;;;5.63;;
9934;SDS011;5006;41.828;23.478;2022-09-09T00:20:01;8.18;;;5.57;;
9934;SDS011;5006;41.828;23.478;2022-09-09T00:21:11;10.52;;;5.50;;
9934;SDS011;5006;41.828;23.478;2022-09-09T00:22:19;7.40;;;5.40;;
9934;SDS011;5006;41.828;23.478;2022-09-09T00:23:28;9.93;;;5.35;;
9934;SDS011;5006;41.828;23.478;2022-09-09T00:24:37;10.55;;;5.45;;
9934;SDS011;5006;41.828;23.478;2022-09-09T00:25:47;7.53;;;5.28;;
9934;SDS011;5006;41.828;23.478;2022-09-09T00:27:00;11.52;;;5.80;;
9934;SDS011;5006;41.828;23.478;2022-09-09T00:28:12;11.23;;;5.97;;
9934;SDS011;5006;41.828;23.478;2022-09-09T00:29:25;11.05;;;6.15;;
9934;SDS011;5006;41.828;23.478;2022-09-09T00:30:38;11.00;;;5.55;;
9934;SDS011;5006;41.828;23.478;2022-09-09T00:31:45;14.88;;;6.43;;
9934;SDS011;5006;41.828;23.478;2022-09-09T00:32:53;10.88;;;5.30;;
9934;SDS011;5006;41.828;23.478;2022-09-09T00:34:05;12.98;;;5.57;;
9934;SDS011;5006;41.828;23.478;2022-09-09T00:35:17;12.18;;;5.97;;
9934;SDS011;5006;41.828;23.478;2022-09-09T00:36:28;12.35;;;5.93;;
9934;SDS011;5006;41.828;23.478;2022-09-09T00:37:36;14.50;;;5.93;;
9934;SDS011;5006;41.828;23.478;2022-09-09T00:38:47;10.82;;;5.95;;
9934;SDS011;5006;41.828;23.478;2022-09-09T00:39:57;10.75;;;6.50;;
9934;SDS011;5006;41.828;23.478;2022-09-09T00:41:07;9.07;;;6.13;;
9934;SDS011;5006;41.828;23.478;2022-09-09T00:42:18;17.20;;;7.10;;
9934;SDS011;5006;41.828;23.478;2022-09-09T00:43:28;12.82;;;6.60;;
9934;SDS011;5006;41.828;23.478;2022-09-09T00:44:36;10.13;;;6.70;;
9934;SDS011;5006;41.828;23.478;2022-09-09T00:45:51;10.18;;;6.13;;
9934;SDS011;5006;41.828;23.478;2022-09-09T00:47:19;9.77;;;6.10;;
9934;SDS011;5006;41.828;23.478;2022-09-09T00:48:36;11.30;;;6.13;;
9934;SDS011;5006;41.828;23.478;2022-09-09T00:49:56;8.93;;;5.90;;
9934;SDS011;5006;41.828;23.478;2022-09-09T00:51:06;14.93;;;5.70;;
9934;SDS011;5006;41.828;23.478;2022-09-09T00:52:22;10.60;;;6.35;;
9934;SDS011;5006;41.828;23.478;2022-09-09T00:53:35;8.90;;;6.18;;
9934;SDS011;5006;41.828;23.478;2022-09-09T00:54:48;12.43;;;6.50;;
9934;SDS011;5006;41.828;23.478;2022-09-09T00:56:03;9.85;;;6.22;;
9934;SDS011;5006;41.828;23.478;2022-09-09T00:57:22;11.65;;;6.35;;
9934;SDS011;5006;41.828;23.478;2022-09-09T00:58:31;10.98;;;6.45;;
9934;SDS011;5006;41.828;23.478;2022-09-09T00:59:39;10.90;;;6.25;;
9934;SDS011;5006;41.828;23.478;2022-09-09T01:00:51;11.43;;;6.53;;
9934;SDS011;5006;41.828;23.478;2022-09-09T01:02:21;9.95;;;6.25;;
9934;SDS011;5006;41.828;23.478;2022-09-09T01:03:33;8.18;;;6.30;;
9934;SDS011;5006;41.828;23.478;2022-09-09T01:04:40;12.75;;;6.57;;
9934;SDS011;5006;41.828;23.478;2022-09-09T01:05:48;10.40;;;6.55;;
9934;SDS011;5006;41.828;23.478;2022-09-09T01:07:05;13.98;;;6.68;;
9934;SDS011;5006;41.828;23.478;2022-09-09T01:08:20;15.68;;;6.20;;
9934;SDS011;5006;41.828;23.478;2022-09-09T01:09:42;10.52;;;6.57;;
9934;SDS011;5006;41.828;23.478;2022-09-09T01:10:55;17.58;;;6.75;;
9934;SDS011;5006;41.828;23.478;2022-09-09T01:12:08;12.98;;;6.45;;
9934;SDS011;5006;41.828;23.478;2022-09-09T01:13:22;11.10;;;6.50;;
9934;SDS011;5006;41.828;23.478;2022-09-09T01:14:32;12.27;;;6.25;;
9934;SDS011;5006;41.828;23.478;2022-09-09T01:15:44;14.43;;;5.85;;
9934;SDS011;5006;41.828;23.478;2022-09-09T01:16:52;12.05;;;6.00;;
9934;SDS011;5006;41.828;23.478;2022-09-09T01:18:01;12.00;;;6.28;;
9934;SDS011;5006;41.828;23.478;2022-09-09T01:19:16;14.85;;;6.55;;
9934;SDS011;5006;41.828;23.478;2022-09-09T01:20:32;9.13;;;6.32;;
9934;SDS011;5006;41.828;23.478;2022-09-09T01:21:46;10.93;;;6.07;;
9934;SDS011;5006;41.828;23.478;2022-09-09T01:23:08;9.95;;;6.70;;
9934;SDS011;5006;41.828;23.478;2022-09-09T01:24:27;13.68;;;6.22;;
9934;SDS011;5006;41.828;23.478;2022-09-09T01:26:16;10.15;;;6.15;;
9934;SDS011;5006;41.828;23.478;2022-09-09T01:27:24;11.77;;;6.60;;
9934;SDS011;5006;41.828;23.478;2022-09-09T01:28:30;10.07;;;5.80;;
9934;SDS011;5006;41.828;23.478;2022-09-09T01:29:42;8.57;;;5.97;;
9934;SDS011;5006;41.828;23.478;2022-09-09T01:30:48;11.70;;;5.60;;
9934;SDS011;5006;41.828;23.478;2022-09-09T01:31:57;15.60;;;6.75;;
9934;SDS011;5006;41.828;23.478;2022-09-09T01:33:04;12.52;;;6.05;;
9934;SDS011;5006;41.828;23.478;2022-09-09T01:34:09;10.45;;;6.30;;
9934;SDS011;5006;41.828;23.478;2022-09-09T01:35:22;11.02;;;6.07;;
9934;SDS011;5006;41.828;23.478;2022-09-09T01:36:40;14.80;;;6.70;;
9934;SDS011;5006;41.828;23.478;2022-09-09T01:37:50;10.23;;;6.78;;
9934;SDS011;5006;41.828;23.478;2022-09-09T01:38:56;12.95;;;7.05;;
9934;SDS011;5006;41.828;23.478;2022-09-09T01:40:02;13.20;;;6.25;;
9934;SDS011;5006;41.828;23.478;2022-09-09T01:41:09;13.25;;;6.20;;
9934;SDS011;5006;41.828;23.478;2022-09-09T01:42:39;15.38;;;6.38;;
9934;SDS011;5006;41.828;23.478;2022-09-09T01:43:45;12.65;;;6.88;;
9934;SDS011;5006;41.828;23.478;2022-09-09T01:44:50;12.40;;;7.07;;
9934;SDS011;5006;41.828;23.478;2022-09-09T01:45:56;11.15;;;6.45;;
9934;SDS011;5006;41.828;23.478;2022-09-09T01:47:04;12.02;;;6.30;;
9934;SDS011;5006;41.828;23.478;2022-09-09T01:48:13;11.48;;;6.40;;
9934;SDS011;5006;41.828;23.478;2022-09-09T01:49:21;10.98;;;6.80;;
9934;SDS011;5006;41.828;23.478;2022-09-09T01:50:28;15.45;;;6.63;;
9934;SDS011;5006;41.828;23.478;2022-09-09T01:51:35;12.35;;;6.78;;
9934;SDS011;5006;41.828;23.478;2022-09-09T01:52:46;10.73;;;5.88;;
9934;SDS011;5006;41.828;23.478;2022-09-09T01:53:57;13.80;;;6.95;;
9934;SDS011;5006;41.828;23.478;2022-09-09T01:55:03;11.52;;;5.82;;
9934;SDS011;5006;41.828;23.478;2022-09-09T01:56:18;11.35;;;6.50;;
9934;SDS011;5006;41.828;23.478;2022-09-09T01:57:39;13.77;;;6.45;;
9934;SDS011;5006;41.828;23.478;2022-09-09T01:59:04;10.07;;;6.20;;
9934;SDS011;5006;41.828;23.478;2022-09-09T02:00:18;12.20;;;6.68;;
9934;SDS011;5006;41.828;23.478;2022-09-09T02:01:27;11.40;;;6.85;;
9934;SDS011;5006;41.828;23.478;2022-09-09T02:02:48;14.57;;;7.50;;
9934;SDS011;5006;41.828;23.478;2022-09-09T02:04:11;17.33;;;7.20;;
9934;SDS011;5006;41.828;23.478;2022-09-09T02:05:38;13.60;;;7.30;;
9934;SDS011;5006;41.828;23.478;2022-09-09T02:06:56;12.48;;;7.07;;
9934;SDS011;5006;41.828;23.478;2022-09-09T02:08:06;10.85;;;7.22;;
9934;SDS011;5006;41.828;23.478;2022-09-09T02:09:22;10.43;;;7.40;;
9934;SDS011;5006;41.828;23.478;2022-09-09T02:10:32;11.38;;;6.68;;
9934;SDS011;5006;41.828;23.478;2022-09-09T02:11:49;13.13;;;7.07;;
9934;SDS011;5006;41.828;23.478;2022-09-09T02:13:12;12.52;;;6.80;;
9934;SDS011;5006;41.828;23.478;2022-09-09T02:14:21;11.30;;;6.68;;
9934;SDS011;5006;41.828;23.478;2022-09-09T02:15:31;12.32;;;6.80;;
9934;SDS011;5006;41.828;23.478;2022-09-09T02:16:40;12.40;;;7.15;;
9934;SDS011;5006;41.828;23.478;2022-09-09T02:17:50;13.32;;;6.88;;
9934;SDS011;5006;41.828;23.478;2022-09-09T02:18:59;12.48;;;6.43;;
9934;SDS011;5006;41.828;23.478;2022-09-09T02:20:21;9.93;;;6.50;;
9934;SDS011;5006;41.828;23.478;2022-09-09T02:21:35;8.85;;;6.15;;
9934;SDS011;5006;41.828;23.478;2022-09-09T02:22:42;11.43;;;6.50;;
9934;SDS011;5006;41.828;23.478;2022-09-09T02:23:52;12.38;;;6.65;;
9934;SDS011;5006;41.828;23.478;2022-09-09T02:25:00;12.70;;;6.20;;
9934;SDS011;5006;41.828;23.478;2022-09-09T02:26:07;10.90;;;6.75;;
9934;SDS011;5006;41.828;23.478;2022-09-09T02:27:19;13.05;;;6.72;;
9934;SDS011;5006;41.828;23.478;2022-09-09T02:28:28;11.85;;;6.38;;
9934;SDS011;5006;41.828;23.478;2022-09-09T02:29:38;16.90;;;7.00;;
9934;SDS011;5006;41.828;23.478;2022-09-09T02:30:45;11.50;;;6.72;;
9934;SDS011;5006;41.828;23.478;2022-09-09T02:32:00;11.38;;;6.97;;
9934;SDS011;5006;41.828;23.478;2022-09-09T02:33:11;12.70;;;6.32;;
9934;SDS011;5006;41.828;23.478;2022-09-09T02:34:23;10.88;;;6.30;;
9934;SDS011;5006;41.828;23.478;2022-09-09T02:35:30;11.63;;;6.10;;
9934;SDS011;5006;41.828;23.478;2022-09-09T02:36:38;11.18;;;6.13;;
9934;SDS011;5006;41.828;23.478;2022-09-09T02:37:47;13.55;;;6.65;;
9934;SDS011;5006;41.828;23.478;2022-09-09T02:38:56;12.30;;;6.68;;
9934;SDS011;5006;41.828;23.478;2022-09-09T02:40:06;12.88;;;6.10;;
9934;SDS011;5006;41.828;23.478;2022-09-09T02:41:18;11.43;;;5.97;;
9934;SDS011;5006;41.828;23.478;2022-09-09T02:42:27;13.23;;;6.60;;
9934;SDS011;5006;41.828;23.478;2022-09-09T02:43:39;12.00;;;6.32;;
9934;SDS011;5006;41.828;23.478;2022-09-09T02:44:49;10.88;;;6.05;;
9934;SDS011;5006;41.828;23.478;2022-09-09T02:45:56;11.60;;;5.75;;
9934;SDS011;5006;41.828;23.478;2022-09-09T02:47:11;14.20;;;6.78;;
9934;SDS011;5006;41.828;23.478;2022-09-09T02:48:34;12.32;;;6.93;;
9934;SDS011;5006;41.828;23.478;2022-09-09T02:49:52;11.57;;;6.72;;
9934;SDS011;5006;41.828;23.478;2022-09-09T02:51:08;12.25;;;6.15;;
9934;SDS011;5006;41.828;23.478;2022-09-09T02:52:21;12.88;;;6.50;;
9934;SDS011;5006;41.828;23.478;2022-09-09T02:53:36;12.32;;;6.88;;
9934;SDS011;5006;41.828;23.478;2022-09-09T02:54:47;12.75;;;6.47;;
9934;SDS011;5006;41.828;23.478;2022-09-09T02:55:57;15.73;;;7.20;;
9934;SDS011;5006;41.828;23.478;2022-09-09T02:57:12;11.40;;;6.72;;
9934;SDS011;5006;41.828;23.478;2022-09-09T02:58:21;15.52;;;7.10;;
9934;SDS011;5006;41.828;23.478;2022-09-09T02:59:36;13.77;;;6.70;;
9934;SDS011;5006;41.828;23.478;2022-09-09T03:00:42;11.32;;;6.63;;
9934;SDS011;5006;41.828;23.478;2022-09-09T03:01:49;8.68;;;5.90;;
9934;SDS011;5006;41.828;23.478;2022-09-09T03:02:53;18.00;;;6.82;;
9934;SDS011;5006;41.828;23.478;2022-09-09T03:04:01;13.77;;;6.20;;
9934;SDS011;5006;41.828;23.478;2022-09-09T03:05:07;10.10;;;6.38;;
9934;SDS011;5006;41.828;23.478;2022-09-09T03:06:14;15.30;;;6.32;;
9934;SDS011;5006;41.828;23.478;2022-09-09T03:07:20;13.00;;;6.35;;
9934;SDS011;5006;41.828;23.478;2022-09-09T03:08:27;11.25;;;6.95;;
9934;SDS011;5006;41.828;23.478;2022-09-09T03:09:34;9.18;;;6.28;;
9934;SDS011;5006;41.828;23.478;2022-09-09T03:10:40;13.32;;;6.45;;
9934;SDS011;5006;41.828;23.478;2022-09-09T03:11:45;14.02;;;6.50;;
9934;SDS011;5006;41.828;23.478;2022-09-09T03:12:53;10.65;;;6.38;;
9934;SDS011;5006;41.828;23.478;2022-09-09T03:13:57;12.35;;;7.00;;
9934;SDS011;5006;41.828;23.478;2022-09-09T03:15:07;10.80;;;6.40;;
9934;SDS011;5006;41.828;23.478;2022-09-09T03:16:12;16.02;;;6.78;;
9934;SDS011;5006;41.828;23.478;2022-09-09T03:17:21;13.65;;;6.72;;
9934;SDS011;5006;41.828;23.478;2022-09-09T03:18:31;9.88;;;6.38;;
9934;SDS011;5006;41.828;23.478;2022-09-09T03:19:38;11.70;;;6.63;;
9934;SDS011;5006;41.828;23.478;2022-09-09T03:20:45;8.75;;;6.78;;
9934;SDS011;5006;41.828;23.478;2022-09-09T03:21:53;12.27;;;6.63;;
9934;SDS011;5006;41.828;23.478;2022-09-09T03:22:58;13.60;;;7.45;;
9934;SDS011;5006;41.828;23.478;2022-09-09T03:24:05;16.05;;;7.28;;
9934;SDS011;5006;41.828;23.478;2022-09-09T03:25:11;12.32;;;6.80;;
9934;SDS011;5006;41.828;23.478;2022-09-09T03:26:17;14.52;;;7.28;;
9934;SDS011;5006;41.828;23.478;2022-09-09T03:27:24;11.82;;;7.07;;
9934;SDS011;5006;41.828;23.478;2022-09-09T03:28:30;16.42;;;7.32;;
9934;SDS011;5006;41.828;23.478;2022-09-09T03:29:37;13.20;;;7.35;;
9934;SDS011;5006;41.828;23.478;2022-09-09T03:30:47;17.17;;;7.47;;
9934;SDS011;5006;41.828;23.478;2022-09-09T03:31:54;13.45;;;7.38;;
9934;SDS011;5006;41.828;23.478;2022-09-09T03:32:59;11.07;;;6.70;;
9934;SDS011;5006;41.828;23.478;2022-09-09T03:34:08;12.70;;;7.35;;
9934;SDS011;5006;41.828;23.478;2022-09-09T03:35:13;16.40;;;7.22;;
9934;SDS011;5006;41.828;23.478;2022-09-09T03:36:20;13.95;;;7.20;;
9934;SDS011;5006;41.828;23.478;2022-09-09T03:37:26;14.68;;;7.03;;
9934;SDS011;5006;41.828;23.478;2022-09-09T03:38:31;9.98;;;7.22;;
9934;SDS011;5006;41.828;23.478;2022-09-09T03:39:38;11.00;;;7.78;;
9934;SDS011;5006;41.828;23.478;2022-09-09T03:40:48;11.90;;;8.35;;
9934;SDS011;5006;41.828;23.478;2022-09-09T03:41:55;13.30;;;7.72;;
9934;SDS011;5006;41.828;23.478;2022-09-09T03:43:00;11.80;;;6.50;;
9934;SDS011;5006;41.828;23.478;2022-09-09T03:44:06;14.55;;;7.28;;
9934;SDS011;5006;41.828;23.478;2022-09-09T03:45:16;13.05;;;6.88;;
9934;SDS011;5006;41.828;23.478;2022-09-09T03:46:24;11.45;;;7.68;;
9934;SDS011;5006;41.828;23.478;2022-09-09T03:47:31;13.02;;;7.30;;
9934;SDS011;5006;41.828;23.478;2022-09-09T03:48:42;17.30;;;7.65;;
9934;SDS011;5006;41.828;23.478;2022-09-09T03:49:48;12.43;;;7.40;;
9934;SDS011;5006;41.828;23.478;2022-09-09T03:50:52;14.60;;;7.78;;
9934;SDS011;5006;41.828;23.478;2022-09-09T03:51:59;8.48;;;7.22;;
9934;SDS011;5006;41.828;23.478;2022-09-09T03:53:05;12.45;;;7.80;;
9934;SDS011;5006;41.828;23.478;2022-09-09T03:54:11;10.18;;;7.90;;
9934;SDS011;5006;41.828;23.478;2022-09-09T03:55:17;15.55;;;8.90;;
9934;SDS011;5006;41.828;23.478;2022-09-09T03:56:23;15.20;;;8.75;;
9934;SDS011;5006;41.828;23.478;2022-09-09T03:57:28;13.60;;;9.18;;
9934;SDS011;5006;41.828;23.478;2022-09-09T03:58:34;14.35;;;9.25;;
9934;SDS011;5006;41.828;23.478;2022-09-09T03:59:43;12.65;;;8.88;;
9934;SDS011;5006;41.828;23.478;2022-09-09T04:00:53;12.63;;;8.80;;
9934;SDS011;5006;41.828;23.478;2022-09-09T04:02:00;11.68;;;9.02;;
9934;SDS011;5006;41.828;23.478;2022-09-09T04:03:06;12.10;;;8.88;;
9934;SDS011;5006;41.828;23.478;2022-09-09T04:04:10;14.60;;;9.23;;
9934;SDS011;5006;41.828;23.478;2022-09-09T04:05:16;14.05;;;9.20;;
9934;SDS011;5006;41.828;23.478;2022-09-09T04:06:24;13.88;;;8.85;;
9934;SDS011;5006;41.828;23.478;2022-09-09T04:07:30;14.02;;;8.55;;
9934;SDS011;5006;41.828;23.478;2022-09-09T04:08:36;14.40;;;9.25;;
9934;SDS011;5006;41.828;23.478;2022-09-09T04:09:42;13.52;;;8.95;;
9934;SDS011;5006;41.828;23.478;2022-09-09T04:10:48;13.02;;;8.88;;
9934;SDS011;5006;41.828;23.478;2022-09-09T04:11:55;14.95;;;8.70;;
9934;SDS011;5006;41.828;23.478;2022-09-09T04:13:01;11.10;;;9.20;;
9934;SDS011;5006;41.828;23.478;2022-09-09T04:14:06;13.50;;;8.50;;
9934;SDS011;5006;41.828;23.478;2022-09-09T04:15:13;13.48;;;9.02;;
9934;SDS011;5006;41.828;23.478;2022-09-09T04:16:18;15.48;;;8.57;;
9934;SDS011;5006;41.828;23.478;2022-09-09T04:17:26;11.82;;;8.30;;
9934;SDS011;5006;41.828;23.478;2022-09-09T04:18:30;12.60;;;7.75;;
9934;SDS011;5006;41.828;23.478;2022-09-09T04:19:38;14.80;;;7.82;;
9934;SDS011;5006;41.828;23.478;2022-09-09T04:20:43;16.13;;;8.82;;
9934;SDS011;5006;41.828;23.478;2022-09-09T04:21:52;13.43;;;8.13;;
9934;SDS011;5006;41.828;23.478;2022-09-09T04:22:59;12.70;;;8.07;;
9934;SDS011;5006;41.828;23.478;2022-09-09T04:24:05;13.52;;;8.52;;
9934;SDS011;5006;41.828;23.478;2022-09-09T04:25:10;12.50;;;8.50;;
9934;SDS011;5006;41.828;23.478;2022-09-09T04:26:16;16.27;;;8.27;;
9934;SDS011;5006;41.828;23.478;2022-09-09T04:27:23;13.15;;;8.43;;
9934;SDS011;5006;41.828;23.478;2022-09-09T04:28:29;14.70;;;8.35;;
9934;SDS011;5006;41.828;23.478;2022-09-09T04:29:35;12.98;;;8.75;;
9934;SDS011;5006;41.828;23.478;2022-09-09T04:30:43;13.68;;;8.82;;
9934;SDS011;5006;41.828;23.478;2022-09-09T04:31:49;14.55;;;9.35;;
9934;SDS011;5006;41.828;23.478;2022-09-09T04:32:56;11.98;;;9.15;;
9934;SDS011;5006;41.828;23.478;2022-09-09T04:34:01;17.73;;;10.05;;
9934;SDS011;5006;41.828;23.478;2022-09-09T04:35:09;13.13;;;9.32;;
9934;SDS011;5006;41.828;23.478;2022-09-09T04:36:14;13.25;;;9.40;;
9934;SDS011;5006;41.828;23.478;2022-09-09T04:37:20;11.25;;;9.35;;
9934;SDS011;5006;41.828;23.478;2022-09-09T04:38:25;12.43;;;9.30;;
9934;SDS011;5006;41.828;23.478;2022-09-09T04:39:32;15.15;;;8.50;;
9934;SDS011;5006;41.828;23.478;2022-09-09T04:40:38;16.67;;;8.93;;
9934;SDS011;5006;41.828;23.478;2022-09-09T04:41:46;17.95;;;10.68;;
9934;SDS011;5006;41.828;23.478;2022-09-09T04:42:52;14.07;;;9.35;;
9934;SDS011;5006;41.828;23.478;2022-09-09T04:43:57;15.27;;;10.88;;
9934;SDS011;5006;41.828;23.478;2022-09-09T04:45:05;16.58;;;12.07;;
9934;SDS011;5006;41.828;23.478;2022-09-09T04:46:11;17.67;;;10.93;;
9934;SDS011;5006;41.828;23.478;2022-09-09T04:47:17;12.02;;;9.20;;
9934;SDS011;5006;41.828;23.478;2022-09-09T04:48:23;15.13;;;9.52;;
9934;SDS011;5006;41.828;23.478;2022-09-09T04:49:30;11.38;;;9.75;;
9934;SDS011;5006;41.828;23.478;2022-09-09T04:50:36;15.65;;;9.45;;
9934;SDS011;5006;41.828;23.478;2022-09-09T04:51:42;12.00;;;9.15;;
9934;SDS011;5006;41.828;23.478;2022-09-09T04:52:47;14.48;;;9.85;;
9934;SDS011;5006;41.828;23.478;2022-09-09T04:53:55;14.75;;;9.68;;
9934;SDS011;5006;41.828;23.478;2022-09-09T04:55:01;13.73;;;9.32;;
9934;SDS011;5006;41.828;23.478;2022-09-09T04:56:07;12.30;;;9.32;;
9934;SDS011;5006;41.828;23.478;2022-09-09T04:57:20;15.23;;;9.68;;
9934;SDS011;5006;41.828;23.478;2022-09-09T04:58:25;10.95;;;9.60;;
9934;SDS011;5006;41.828;23.478;2022-09-09T04:59:31;14.85;;;9.05;;
9934;SDS011;5006;41.828;23.478;2022-09-09T05:00:38;11.98;;;10.15;;
9934;SDS011;5006;41.828;23.478;2022-09-09T05:01:45;13.80;;;9.77;;
9934;SDS011;5006;41.828;23.478;2022-09-09T05:02:50;10.52;;;9.43;;
9934;SDS011;5006;41.828;23.478;2022-09-09T05:03:57;12.20;;;10.10;;
9934;SDS011;5006;41.828;23.478;2022-09-09T05:05:03;13.55;;;10.00;;
9934;SDS011;5006;41.828;23.478;2022-09-09T05:06:10;11.05;;;9.55;;
9934;SDS011;5006;41.828;23.478;2022-09-09T05:07:17;12.80;;;9.82;;
9934;SDS011;5006;41.828;23.478;2022-09-09T05:08:23;20.27;;;10.32;;
9934;SDS011;5006;41.828;23.478;2022-09-09T05:09:29;13.75;;;10.57;;
9934;SDS011;5006;41.828;23.478;2022-09-09T05:10:36;16.95;;;9.93;;
9934;SDS011;5006;41.828;23.478;2022-09-09T05:11:43;14.50;;;10.00;;
9934;SDS011;5006;41.828;23.478;2022-09-09T05:13:01;13.27;;;10.82;;
9934;SDS011;5006;41.828;23.478;2022-09-09T05:14:08;12.98;;;10.80;;
9934;SDS011;5006;41.828;23.478;2022-09-09T05:15:15;18.63;;;10.77;;
9934;SDS011;5006;41.828;23.478;2022-09-09T05:16:20;19.60;;;10.80;;
9934;SDS011;5006;41.828;23.478;2022-09-09T05:17:27;13.93;;;10.50;;
9934;SDS011;5006;41.828;23.478;2022-09-09T05:18:32;14.20;;;10.52;;
9934;SDS011;5006;41.828;23.478;2022-09-09T05:19:40;14.43;;;10.43;;
9934;SDS011;5006;41.828;23.478;2022-09-09T05:20:45;14.88;;;10.35;;
9934;SDS011;5006;41.828;23.478;2022-09-09T05:21:51;14.85;;;11.45;;
9934;SDS011;5006;41.828;23.478;2022-09-09T05:23:01;13.48;;;11.30;;
9934;SDS011;5006;41.828;23.478;2022-09-09T05:24:08;16.85;;;11.93;;
9934;SDS011;5006;41.828;23.478;2022-09-09T05:25:15;13.10;;;11.77;;
9934;SDS011;5006;41.828;23.478;2022-09-09T05:26:21;13.63;;;11.68;;
9934;SDS011;5006;41.828;23.478;2022-09-09T05:27:30;15.43;;;12.00;;
9934;SDS011;5006;41.828;23.478;2022-09-09T05:28:36;13.05;;;11.68;;
9934;SDS011;5006;41.828;23.478;2022-09-09T05:29:42;13.48;;;11.88;;
9934;SDS011;5006;41.828;23.478;2022-09-09T05:30:54;14.27;;;12.38;;
9934;SDS011;5006;41.828;23.478;2022-09-09T05:32:01;16.50;;;13.75;;
9934;SDS011;5006;41.828;23.478;2022-09-09T05:33:07;17.73;;;14.32;;
9934;SDS011;5006;41.828;23.478;2022-09-09T05:34:13;17.35;;;15.63;;
9934;SDS011;5006;41.828;23.478;2022-09-09T05:35:20;17.17;;;14.52;;
9934;SDS011;5006;41.828;23.478;2022-09-09T05:36:27;15.88;;;14.48;;
9934;SDS011;5006;41.828;23.478;2022-09-09T05:37:34;17.00;;;15.10;;
9934;SDS011;5006;41.828;23.478;2022-09-09T05:38:40;16.45;;;14.85;;
9934;SDS011;5006;41.828;23.478;2022-09-09T05:39:45;16.45;;;14.85;;
9934;SDS011;5006;41.828;23.478;2022-09-09T05:40:51;20.45;;;16.35;;
9934;SDS011;5006;41.828;23.478;2022-09-09T05:41:56;22.23;;;16.70;;
9934;SDS011;5006;41.828;23.478;2022-09-09T05:43:02;19.67;;;17.52;;
9934;SDS011;5006;41.828;23.478;2022-09-09T05:44:07;19.73;;;17.23;;
9934;SDS011;5006;41.828;23.478;2022-09-09T05:45:16;23.65;;;19.52;;
9934;SDS011;5006;41.828;23.478;2022-09-09T05:46:21;24.48;;;18.83;;
9934;SDS011;5006;41.828;23.478;2022-09-09T05:47:30;23.13;;;20.67;;
9934;SDS011;5006;41.828;23.478;2022-09-09T05:48:35;23.25;;;20.48;;
9934;SDS011;5006;41.828;23.478;2022-09-09T05:49:42;27.42;;;20.98;;
9934;SDS011;5006;41.828;23.478;2022-09-09T05:50:54;23.45;;;17.95;;
9934;SDS011;5006;41.828;23.478;2022-09-09T05:52:00;38.88;;;28.88;;
9934;SDS011;5006;41.828;23.478;2022-09-09T05:53:08;36.47;;;31.80;;
9934;SDS011;5006;41.828;23.478;2022-09-09T05:54:13;25.98;;;23.27;;
9934;SDS011;5006;41.828;23.478;2022-09-09T05:55:23;29.23;;;24.38;;
9934;SDS011;5006;41.828;23.478;2022-09-09T05:56:29;26.05;;;23.35;;
9934;SDS011;5006;41.828;23.478;2022-09-09T05:57:37;26.52;;;23.13;;
9934;SDS011;5006;41.828;23.478;2022-09-09T05:58:43;26.90;;;22.60;;
9934;SDS011;5006;41.828;23.478;2022-09-09T05:59:51;26.65;;;22.25;;
9934;SDS011;5006;41.828;23.478;2022-09-09T06:01:05;24.38;;;21.77;;
9934;SDS011;5006;41.828;23.478;2022-09-09T06:02:13;27.45;;;24.65;;
9934;SDS011;5006;41.828;23.478;2022-09-09T06:03:18;26.58;;;24.02;;
9934;SDS011;5006;41.828;23.478;2022-09-09T06:04:29;26.58;;;23.88;;
9934;SDS011;5006;41.828;23.478;2022-09-09T06:05:36;33.22;;;25.33;;
9934;SDS011;5006;41.828;23.478;2022-09-09T06:06:43;27.75;;;24.42;;
9934;SDS011;5006;41.828;23.478;2022-09-09T06:07:53;46.05;;;27.15;;
9934;SDS011;5006;41.828;23.478;2022-09-09T06:08:58;27.35;;;24.77;;
9934;SDS011;5006;41.828;23.478;2022-09-09T06:10:09;26.88;;;23.48;;
9934;SDS011;5006;41.828;23.478;2022-09-09T06:11:15;26.05;;;22.48;;
9934;SDS011;5006;41.828;23.478;2022-09-09T06:12:22;28.05;;;23.02;;
9934;SDS011;5006;41.828;23.478;2022-09-09T06:13:28;92.50;;;25.00;;
9934;SDS011;5006;41.828;23.478;2022-09-09T06:14:34;38.92;;;23.25;;
9934;SDS011;5006;41.828;23.478;2022-09-09T06:15:49;26.73;;;22.40;;
9934;SDS011;5006;41.828;23.478;2022-09-09T06:16:54;72.40;;;24.40;;
9934;SDS011;5006;41.828;23.478;2022-09-09T06:18:04;49.17;;;23.05;;
9934;SDS011;5006;41.828;23.478;2022-09-09T06:19:09;41.63;;;23.05;;
9934;SDS011;5006;41.828;23.478;2022-09-09T06:20:16;35.75;;;22.70;;
9934;SDS011;5006;41.828;23.478;2022-09-09T06:21:23;51.72;;;22.90;;
9934;SDS011;5006;41.828;23.478;2022-09-09T06:22:31;24.58;;;21.98;;
9934;SDS011;5006;41.828;23.478;2022-09-09T06:23:36;24.05;;;21.75;;
9934;SDS011;5006;41.828;23.478;2022-09-09T06:24:45;23.58;;;21.48;;
9934;SDS011;5006;41.828;23.478;2022-09-09T06:25:50;24.13;;;21.85;;
9934;SDS011;5006;41.828;23.478;2022-09-09T06:26:57;24.60;;;22.17;;
9934;SDS011;5006;41.828;23.478;2022-09-09T06:28:06;24.55;;;22.33;;
9934;SDS011;5006;41.828;23.478;2022-09-09T06:29:12;22.80;;;20.58;;
9934;SDS011;5006;41.828;23.478;2022-09-09T06:30:18;23.20;;;21.10;;
9934;SDS011;5006;41.828;23.478;2022-09-09T06:31:24;24.02;;;21.55;;
9934;SDS011;5006;41.828;23.478;2022-09-09T06:32:30;23.98;;;21.67;;
9934;SDS011;5006;41.828;23.478;2022-09-09T06:33:39;23.40;;;21.20;;
9934;SDS011;5006;41.828;23.478;2022-09-09T06:34:46;23.10;;;20.80;;
9934;SDS011;5006;41.828;23.478;2022-09-09T06:35:54;23.27;;;20.95;;
9934;SDS011;5006;41.828;23.478;2022-09-09T06:36:59;24.70;;;21.13;;
9934;SDS011;5006;41.828;23.478;2022-09-09T06:38:15;21.40;;;19.48;;
9934;SDS011;5006;41.828;23.478;2022-09-09T06:39:22;22.17;;;20.05;;
9934;SDS011;5006;41.828;23.478;2022-09-09T06:40:28;21.00;;;19.10;;
9934;SDS011;5006;41.828;23.478;2022-09-09T06:41:34;20.48;;;18.48;;
9934;SDS011;5006;41.828;23.478;2022-09-09T06:42:41;20.50;;;18.48;;
9934;SDS011;5006;41.828;23.478;2022-09-09T06:44:01;17.35;;;15.77;;
9934;SDS011;5006;41.828;23.478;2022-09-09T06:45:12;21.02;;;18.98;;
9934;SDS011;5006;41.828;23.478;2022-09-09T06:46:27;19.20;;;17.35;;
9934;SDS011;5006;41.828;23.478;2022-09-09T06:47:35;19.60;;;17.80;;
9934;SDS011;5006;41.828;23.478;2022-09-09T06:48:41;19.20;;;16.90;;
9934;SDS011;5006;41.828;23.478;2022-09-09T06:49:50;19.58;;;16.83;;
9934;SDS011;5006;41.828;23.478;2022-09-09T06:51:02;20.30;;;18.02;;
9934;SDS011;5006;41.828;23.478;2022-09-09T06:52:10;18.70;;;16.83;;
9934;SDS011;5006;41.828;23.478;2022-09-09T06:53:18;19.58;;;17.60;;
9934;SDS011;5006;41.828;23.478;2022-09-09T06:54:25;20.52;;;18.55;;
9934;SDS011;5006;41.828;23.478;2022-09-09T06:55:29;19.13;;;17.30;;
9934;SDS011;5006;41.828;23.478;2022-09-09T06:56:36;19.45;;;17.60;;